LEVCLEAL

Guest
Details From LEVC - Valencia
To LEAL - Alicante
Flight Number -
Tags generated
Created
Modified
Stats Distance 73 nm / 134 km
Max Altitude 0 ft / 0 m
Waypoints 3
Social Downloads 15
Likes 0
Share VATSIM

Download

Looking for another format? Having issues loading an existing format? Contact us
Advertisement - Login to hide

Notes

Basic altitude profile: - Ascent Rate: 250ft/min - Ascent Speed: 200kts - Cruise Altitude: 8000ft - Cruise Speed: 300kts - Descent Rate: 250ft/min - Descent Speed: 200kts Options: - Use NATs: yes - Use PACOTS: yes - Use low airways: yes - Use high airways: yes

Route

LEVC VLC LEAL

ID Type Via Altitude Latitude Longitude Leg Dist Tot Dist Heading (true) Name
O LEVC APT - 0 ft / 0 m 39.48824˚ -0.48389˚ - 0 nm - Valencia
VLC VOR - 0 ft / 0 m 39.48565˚ -0.48304˚ 0 nm 0 nm 166° / 166° VALENCIA VOR-DME
O LEAL APT - 0 ft / 0 m 38.28217˚ -0.55816˚ 72 nm 72 nm 183° / 183° Alicante

Altitude Profile

Advertisement - Login to hide

LEVC

Details ICAO LEVC (VLC)
Name Valencia
Region Spain
Timezone Europe/Madrid (UTC+2.0)
Stats Elevation 225 ft / 69 m (AMSL)
Location 39.488236° -0.483892°
Runways 2
Magnetic Variation 0.243° E

METAR

LEVC 271230Z 13009KT 080V170 9999 FEW030TCU 25/16 Q1011 NOSIG

Decode

TAF

TAF LEVC 271100Z 2712/2812 VRB03KT 9999 FEW020 TX26/2712Z TN15/2806Z TEMPO 2713/2717 11010G25KT PROB40 TEMPO 2715/2719 4000 SHRA FEW030TCU PROB30 TEMPO 2715/2719 TSRA FEW030CB BECMG 2717/2719 26005KT

Decode

Departure Runways

ID Width Length Bearing (true) Bearing (mag) Surface Threshold Offset Overrun Length
12 148 ft / 45 m 10,555 ft / 3,217 m 116.25° 116.01° Asphalt 0 ft / 0 m 646 ft / 197 m
22 154 ft / 47 m 3,828 ft / 1,167 m 217.99° 217.75° Asphalt 0 ft / 0 m 0 ft / 0 m
30 148 ft / 45 m 10,555 ft / 3,217 m 296.27° 296.03° Asphalt 1,001 ft / 305 m 932 ft / 284 m
4 154 ft / 47 m 3,828 ft / 1,167 m 37.98° 37.74° Asphalt 0 ft / 0 m 0 ft / 0 m

LEAL

Details ICAO LEAL (ALC)
Name Alicante
Region Spain
Timezone Europe/Madrid (UTC+2.0)
Stats Elevation 141 ft / 43 m (AMSL)
Location 38.282169° -0.558157°
Runways 1
Magnetic Variation 0.233° E

METAR

LEAL 271230Z 17011KT 120V230 CAVOK 24/15 Q1013 NOSIG

Decode

TAF

TAF TAF LEAL 271100Z 2712/2812 18008KT 9999 FEW030 TX25/2712Z TN17/2806Z PROB40 TEMPO 2712/2717 17014G24KT BECMG 2717/2719 VRB04KT TEMPO 2719/2721 31016G28KT BECMG 2810/2812 18015KT

Decode

Destination Runways

ID Width Length Bearing (true) Bearing (mag) Surface Threshold Offset Overrun Length
10 148 ft / 45 m 9,799 ft / 2,987 m 100.07° 99.84° Asphalt 0 ft / 0 m 164 ft / 50 m
28 148 ft / 45 m 9,799 ft / 2,987 m 280.09° 279.86° Asphalt 0 ft / 0 m 197 ft / 60 m

Approach Navaids

Runway Type Ident Frequency Range Bearing (true) Bearing (mag) Slope Elevation
10 Localiser IAT 110.30 MHz 18 nm / 33 km 100.09° 99.86° - 29 ft / 9 m (AMSL)
10 Glidescope IAT 110.30 MHz 10 nm / 19 km 100.09° 99.86° 3.00° 129 ft / 39 m (AMSL)
10 DME IAT 110.30 MHz 18 nm / 33 km - - - 129 ft / 39 m (AMSL)

Popular Alternatives